createdAt,value
2023-01-04T00:00:52.476Z,100.00
2023-01-04T00:03:19.246Z,100.00
2023-01-04T00:05:45.887Z,100.00
2023-01-04T00:08:12.487Z,100.00
2023-01-04T00:10:39.198Z,100.00
2023-01-04T00:13:05.852Z,100.00
2023-01-04T00:15:32.481Z,100.00
2023-01-04T00:17:59.131Z,100.00
2023-01-04T00:20:25.749Z,100.00
2023-01-04T00:22:52.381Z,100.00
2023-01-04T00:25:19.061Z,100.00
2023-01-04T00:27:45.720Z,100.00
2023-01-04T00:30:13.019Z,100.00
2023-01-04T00:32:39.647Z,100.00
2023-01-04T00:35:06.478Z,100.00
2023-01-04T00:37:33.181Z,100.00
2023-01-04T00:39:59.811Z,100.00
2023-01-04T00:42:26.501Z,100.00
2023-01-04T00:44:53.150Z,100.00
2023-01-04T00:47:19.748Z,100.00
2023-01-04T00:49:46.399Z,100.00
2023-01-04T00:52:13.051Z,100.00
2023-01-04T00:54:39.664Z,100.00
2023-01-04T00:57:07.319Z,100.00
2023-01-04T00:59:33.917Z,100.00
2023-01-04T01:02:00.745Z,100.00
2023-01-04T01:04:27.758Z,100.00
2023-01-04T01:06:54.539Z,100.00
2023-01-04T01:09:24.387Z,100.00
2023-01-04T01:11:52.378Z,100.00
2023-01-04T01:14:22.829Z,100.00
2023-01-04T01:16:55.838Z,100.00
2023-01-04T01:19:23.231Z,100.00
2023-01-04T01:21:49.862Z,100.00
2023-01-04T01:24:19.098Z,100.00
2023-01-04T01:26:45.807Z,100.00
2023-01-04T01:29:12.586Z,100.00
2023-01-04T01:31:40.447Z,100.00
2023-01-04T01:34:07.132Z,100.00
2023-01-04T01:36:33.907Z,100.00
2023-01-04T01:39:00.739Z,100.00
2023-01-04T01:41:30.183Z,100.00
2023-01-04T01:44:03.053Z,100.00
2023-01-04T01:46:29.688Z,100.00
2023-01-04T01:49:02.057Z,100.00
2023-01-04T01:51:29.395Z,100.00
2023-01-04T01:54:02.994Z,100.00
2023-01-04T01:56:33.845Z,100.00
2023-01-04T01:59:01.219Z,100.00
2023-01-04T02:01:28.351Z,100.00
2023-01-04T02:03:56.284Z,100.00
2023-01-04T02:06:31.074Z,100.00
2023-01-04T02:08:58.439Z,100.00
2023-01-04T02:11:26.417Z,100.00
2023-01-04T02:14:12.242Z,100.00
2023-01-04T02:17:17.074Z,100.00
2023-01-04T02:20:08.599Z,100.00
2023-01-04T02:23:01.897Z,100.00
2023-01-04T02:25:51.642Z,100.00
2023-01-04T02:28:27.331Z,100.00
2023-01-04T02:31:09.103Z,100.00
2023-01-04T02:33:57.300Z,100.00
2023-01-04T02:36:33.097Z,100.00
2023-01-04T02:39:04.020Z,100.00
2023-01-04T02:41:39.246Z,100.00
2023-01-04T02:44:34.665Z,100.00
2023-01-04T02:47:10.105Z,100.00
2023-01-04T02:50:00.544Z,100.00
2023-01-04T02:52:31.289Z,100.00
2023-01-04T02:54:58.296Z,100.00
2023-01-04T02:57:30.074Z,100.00
2023-01-04T03:00:30.428Z,100.00
2023-01-04T03:03:32.430Z,100.00
2023-01-04T03:06:17.267Z,100.00
2023-01-04T03:09:02.042Z,100.00
2023-01-04T03:11:57.083Z,100.00
2023-01-04T03:14:33.331Z,100.00
2023-01-04T03:17:07.848Z,100.00
2023-01-04T03:19:51.992Z,100.00
2023-01-04T03:22:48.513Z,100.00
2023-01-04T03:25:37.056Z,100.00
2023-01-04T03:28:24.491Z,100.00
2023-01-04T03:31:17.336Z,100.00
2023-01-04T03:34:03.025Z,100.00
2023-01-04T03:36:45.352Z,100.00
2023-01-04T03:40:03.952Z,100.00
2023-01-04T03:43:10.679Z,100.00
2023-01-04T03:46:03.744Z,100.00
2023-01-04T03:48:41.716Z,100.00
2023-01-04T03:51:23.142Z,100.00
2023-01-04T03:54:04.335Z,100.00
2023-01-04T03:56:33.217Z,100.00
2023-01-04T03:59:00.618Z,100.00
2023-01-04T04:01:28.879Z,100.00
2023-01-04T04:04:14.146Z,100.00
2023-01-04T04:06:59.572Z,100.00
2023-01-04T04:09:26.342Z,100.00
2023-01-04T04:11:53.082Z,100.00
2023-01-04T04:14:19.702Z,100.00
2023-01-04T04:16:46.496Z,100.00
2023-01-04T04:19:13.165Z,100.00
2023-01-04T04:21:39.851Z,100.00
2023-01-04T04:24:06.705Z,100.00
2023-01-04T04:26:33.646Z,100.00
2023-01-04T04:29:00.286Z,100.00
2023-01-04T04:31:26.965Z,100.00
2023-01-04T04:33:53.684Z,100.00
2023-01-04T04:36:20.348Z,100.00
2023-01-04T04:38:46.969Z,100.00
2023-01-04T04:41:33.273Z,100.00
2023-01-04T04:43:59.975Z,100.00
2023-01-04T04:46:26.674Z,100.00
2023-01-04T04:48:53.326Z,100.00
2023-01-04T04:51:20.259Z,100.00
2023-01-04T04:53:46.886Z,100.00
2023-01-04T04:56:13.511Z,100.00
2023-01-04T04:58:40.516Z,100.00
2023-01-04T05:01:07.995Z,100.00
2023-01-04T05:03:35.218Z,100.00
2023-01-04T05:06:02.300Z,100.00
2023-01-04T05:08:29.112Z,100.00
2023-01-04T05:10:55.782Z,100.00
2023-01-04T05:13:22.801Z,100.00
2023-01-04T05:15:52.647Z,100.00
2023-01-04T05:18:21.695Z,100.00
2023-01-04T05:20:48.675Z,100.00
2023-01-04T05:23:16.844Z,100.00
2023-01-04T05:25:43.586Z,100.00
2023-01-04T05:28:10.751Z,100.00
2023-01-04T05:30:56.341Z,100.00
2023-01-04T05:33:24.753Z,100.00
2023-01-04T05:35:52.705Z,100.00
2023-01-04T05:38:19.993Z,100.00
2023-01-04T05:40:48.750Z,100.00
2023-01-04T05:43:16.413Z,100.00
2023-01-04T05:45:44.701Z,100.00
2023-01-04T05:48:11.368Z,100.00
2023-01-04T05:50:38.161Z,100.00
2023-01-04T05:53:06.463Z,100.00
2023-01-04T05:55:33.557Z,100.00
2023-01-04T05:58:00.789Z,100.00
2023-01-04T06:00:27.522Z,100.00
2023-01-04T06:02:55.501Z,100.00
2023-01-04T06:05:23.033Z,100.00
2023-01-04T06:07:49.704Z,100.00
2023-01-04T06:10:16.384Z,100.00
2023-01-04T06:12:43.180Z,100.00
2023-01-04T06:15:11.150Z,100.00
2023-01-04T06:17:38.977Z,100.00
2023-01-04T06:20:09.396Z,100.00
2023-01-04T06:22:36.957Z,100.00
2023-01-04T06:25:04.568Z,100.00
2023-01-04T06:27:31.200Z,100.00
2023-01-04T06:29:57.870Z,100.00
2023-01-04T06:32:24.553Z,100.00
2023-01-04T06:34:51.278Z,100.00
2023-01-04T06:37:18.031Z,100.00
2023-01-04T06:39:44.711Z,100.00
2023-01-04T06:42:31.285Z,100.00
2023-01-04T06:44:58.037Z,100.00
2023-01-04T06:47:24.725Z,100.00
2023-01-04T06:49:51.578Z,100.00
2023-01-04T06:52:18.360Z,100.00
2023-01-04T06:54:45.050Z,100.00
2023-01-04T06:57:12.180Z,100.00
2023-01-04T06:59:38.853Z,100.00
2023-01-04T07:02:05.697Z,100.00
2023-01-04T07:04:32.539Z,100.00
2023-01-04T07:06:59.193Z,100.00
2023-01-04T07:09:25.839Z,100.00
2023-01-04T07:11:52.531Z,100.00
2023-01-04T07:14:19.116Z,100.00
2023-01-04T07:16:45.904Z,100.00
2023-01-04T07:19:12.568Z,100.00
2023-01-04T07:21:39.241Z,100.00
2023-01-04T07:24:05.961Z,100.00
2023-01-04T07:26:33.939Z,100.00
2023-01-04T07:29:15.849Z,100.00
2023-01-04T07:31:51.192Z,100.00
2023-01-04T07:34:20.312Z,100.00
2023-01-04T07:36:48.400Z,100.00
2023-01-04T07:39:17.101Z,100.00
2023-01-04T07:41:44.657Z,100.00
2023-01-04T07:44:12.058Z,100.00
2023-01-04T07:46:38.987Z,100.00
2023-01-04T07:49:11.567Z,100.00
2023-01-04T07:51:41.669Z,100.00
2023-01-04T07:54:10.362Z,100.00
2023-01-04T07:56:37.550Z,100.00
2023-01-04T07:59:08.954Z,100.00
2023-01-04T08:01:38.016Z,100.00
2023-01-04T08:04:06.185Z,100.00
2023-01-04T08:06:33.767Z,100.00
2023-01-04T08:09:00.675Z,100.00
2023-01-04T08:11:27.646Z,100.00
2023-01-04T08:13:54.458Z,100.00
2023-01-04T08:16:32.804Z,100.00
2023-01-04T08:19:02.294Z,100.00
2023-01-04T08:21:31.011Z,100.00
2023-01-04T08:23:57.823Z,100.00
2023-01-04T08:26:24.621Z,100.00
2023-01-04T08:28:51.873Z,100.00
2023-01-04T08:31:22.138Z,100.00
2023-01-04T08:33:50.275Z,100.00
2023-01-04T08:36:27.201Z,100.00
2023-01-04T08:39:01.327Z,100.00
2023-01-04T08:41:56.553Z,100.00
2023-01-04T08:44:24.787Z,100.00
2023-01-04T08:46:53.077Z,100.00
2023-01-04T08:49:20.832Z,100.00
2023-01-04T08:51:48.463Z,100.00
2023-01-04T08:54:15.648Z,100.00
2023-01-04T08:56:42.613Z,100.00
2023-01-04T08:59:11.224Z,100.00
2023-01-04T09:01:39.254Z,100.00
2023-01-04T09:04:06.585Z,100.00
2023-01-04T09:06:33.510Z,100.00
2023-01-04T09:09:00.187Z,100.00
2023-01-04T09:11:27.209Z,100.00
2023-01-04T09:14:06.904Z,100.00
2023-01-04T09:16:36.638Z,100.00
2023-01-04T09:19:03.829Z,100.00
2023-01-04T09:21:30.619Z,100.00
2023-01-04T09:23:58.843Z,100.00
2023-01-04T09:26:25.601Z,100.00
2023-01-04T09:28:53.725Z,100.00
2023-01-04T09:31:26.930Z,100.00
2023-01-04T09:36:41.724Z,100.00
2023-01-04T09:39:13.332Z,100.00
2023-01-04T09:41:59.073Z,100.00
2023-01-04T09:45:03.251Z,100.00
2023-01-04T09:47:40.928Z,100.00
2023-01-04T09:50:16.576Z,100.00
2023-01-04T09:52:56.861Z,100.00
2023-01-04T09:55:40.989Z,100.00
2023-01-04T09:58:23.206Z,100.00
2023-01-04T10:01:01.807Z,100.00
2023-01-04T10:03:33.204Z,100.00
2023-01-04T10:06:01.858Z,100.00
2023-01-04T10:08:31.345Z,100.00
2023-01-04T10:11:30.769Z,100.00
2023-01-04T10:14:15.380Z,100.00
2023-01-04T10:17:12.806Z,100.00
2023-01-04T10:23:10.242Z,100.00
2023-01-04T10:26:01.145Z,100.00
2023-01-04T10:28:56.631Z,100.00
2023-01-04T10:31:42.014Z,100.00
2023-01-04T10:34:25.986Z,100.00
2023-01-04T10:37:10.396Z,100.00
2023-01-04T10:39:37.457Z,100.00
2023-01-04T10:42:14.914Z,100.00
2023-01-04T10:45:08.574Z,99.37
2023-01-04T10:48:18.848Z,96.36
2023-01-04T10:50:56.515Z,94.72
2023-01-04T10:53:37.258Z,92.41
2023-01-04T10:56:25.969Z,92.98
2023-01-04T10:59:10.421Z,93.78
2023-01-04T11:01:51.562Z,92.13
2023-01-04T11:04:18.316Z,93.05
2023-01-04T11:06:51.678Z,92.54
2023-01-04T11:09:25.666Z,93.95
2023-01-04T11:11:57.445Z,94.21
2023-01-04T11:14:25.597Z,93.39
2023-01-04T11:16:59.134Z,94.78
2023-01-04T11:19:27.319Z,95.38
2023-01-04T11:22:06.006Z,95.44
2023-01-04T11:24:34.384Z,97.23
2023-01-04T11:27:14.542Z,97.82
2023-01-04T11:30:04.218Z,98.37
2023-01-04T11:32:52.263Z,99.29
2023-01-04T11:35:46.167Z,100.00
2023-01-04T11:38:14.391Z,99.76
2023-01-04T11:40:41.314Z,99.61
2023-01-04T11:43:20.927Z,99.45
2023-01-04T11:45:53.820Z,100.00
2023-01-04T11:48:31.449Z,100.00
2023-01-04T11:50:58.169Z,100.00
2023-01-04T11:53:29.793Z,100.00
2023-01-04T11:56:20.307Z,100.00
2023-01-04T11:59:12.337Z,100.00
2023-01-04T12:01:47.471Z,100.00
2023-01-04T12:04:21.017Z,100.00
2023-01-04T12:06:57.459Z,100.00
2023-01-04T12:09:24.198Z,100.00
2023-01-04T12:11:57.228Z,100.00
2023-01-04T12:14:32.475Z,100.00
2023-01-04T12:17:26.206Z,100.00
2023-01-04T12:19:56.743Z,100.00
2023-01-04T12:22:41.662Z,100.00
2023-01-04T12:25:25.501Z,100.00
2023-01-04T12:27:55.364Z,100.00
2023-01-04T12:30:46.621Z,100.00
2023-01-04T12:33:31.541Z,100.00
2023-01-04T12:36:04.885Z,100.00
2023-01-04T12:38:56.470Z,100.00
2023-01-04T12:41:45.166Z,100.00
2023-01-04T12:44:36.835Z,100.00
2023-01-04T12:47:37.561Z,100.00
2023-01-04T12:50:13.230Z,100.00
2023-01-04T12:55:36.723Z,100.00
2023-01-04T12:58:42.225Z,100.00
2023-01-04T13:01:26.449Z,100.00
2023-01-04T13:04:21.057Z,100.00
2023-01-04T13:06:47.933Z,100.00
2023-01-04T13:09:24.054Z,100.00
2023-01-04T13:12:05.621Z,100.00
2023-01-04T13:14:44.098Z,100.00
2023-01-04T13:17:16.604Z,99.97
2023-01-04T13:19:44.801Z,100.00
2023-01-04T13:22:23.434Z,100.00
2023-01-04T13:24:56.488Z,99.32
2023-01-04T13:27:23.902Z,99.65
2023-01-04T13:29:52.165Z,99.75
2023-01-04T13:32:28.104Z,99.35
2023-01-04T13:34:59.729Z,99.13
2023-01-04T13:37:29.973Z,98.63
2023-01-04T13:40:24.231Z,98.05
2023-01-04T13:42:56.243Z,97.57
2023-01-04T13:45:40.808Z,97.76
2023-01-04T13:48:14.474Z,98.64
2023-01-04T13:50:49.801Z,97.29
2023-01-04T13:53:24.728Z,96.39
2023-01-04T13:55:54.008Z,97.23
2023-01-04T13:58:23.339Z,97.07
2023-01-04T14:00:55.807Z,97.13
2023-01-04T14:03:40.233Z,97.22
2023-01-04T14:06:09.982Z,98.14
2023-01-04T14:08:41.203Z,98.14
2023-01-04T14:11:46.819Z,98.64
2023-01-04T14:14:22.119Z,98.75
2023-01-04T14:16:50.960Z,98.36
2023-01-04T14:19:41.487Z,98.89
2023-01-04T14:22:23.471Z,99.48
2023-01-04T14:25:11.292Z,99.94
2023-01-04T14:27:43.009Z,100.00
2023-01-04T14:30:18.787Z,100.00
2023-01-04T14:33:09.112Z,100.00
2023-01-04T14:35:38.345Z,100.00
2023-01-04T14:38:16.400Z,100.00
2023-01-04T14:40:43.753Z,100.00
2023-01-04T14:43:32.141Z,100.00
2023-01-04T14:45:58.826Z,100.00
2023-01-04T14:48:25.498Z,100.00
2023-01-04T14:50:52.509Z,100.00
2023-01-04T14:53:21.286Z,100.00
2023-01-04T14:55:47.997Z,100.00
2023-01-04T14:58:14.630Z,100.00
2023-01-04T15:00:41.533Z,100.00
2023-01-04T15:03:09.618Z,100.00
2023-01-04T15:05:38.025Z,100.00
2023-01-04T15:08:05.083Z,100.00
2023-01-04T15:10:32.057Z,100.00
2023-01-04T15:13:00.657Z,100.00
2023-01-04T15:15:27.481Z,100.00
2023-01-04T15:17:54.066Z,100.00
2023-01-04T15:20:20.728Z,100.00
2023-01-04T15:22:47.437Z,100.00
2023-01-04T15:25:14.108Z,100.00
2023-01-04T15:27:42.724Z,100.00
2023-01-04T15:30:11.847Z,100.00
2023-01-04T15:32:39.212Z,100.00
2023-01-04T15:35:06.838Z,100.00
2023-01-04T15:37:33.533Z,100.00
2023-01-04T15:40:02.663Z,100.00
2023-01-04T15:42:48.876Z,100.00
2023-01-04T15:45:15.777Z,100.00
2023-01-04T15:47:42.456Z,100.00
2023-01-04T15:50:09.307Z,100.00
2023-01-04T15:52:35.985Z,100.00
2023-01-04T15:55:02.997Z,100.00
2023-01-04T15:57:29.821Z,100.00
2023-01-04T15:59:56.440Z,100.00
2023-01-04T16:02:23.287Z,100.00
2023-01-04T16:04:50.487Z,100.00
2023-01-04T16:07:17.997Z,100.00
2023-01-04T16:09:44.788Z,100.00
2023-01-04T16:12:29.914Z,100.00
2023-01-04T16:14:56.646Z,100.00
2023-01-04T16:17:23.500Z,100.00
2023-01-04T16:19:50.143Z,100.00
2023-01-04T16:22:16.841Z,100.00
2023-01-04T16:27:35.477Z,100.00
2023-01-04T16:30:03.998Z,100.00
2023-01-04T16:32:31.222Z,100.00
2023-01-04T16:34:57.948Z,100.00
2023-01-04T16:37:28.526Z,100.00
2023-01-04T16:40:10.686Z,100.00
2023-01-04T16:42:38.735Z,100.00
2023-01-04T16:45:06.959Z,100.00
2023-01-04T16:47:39.992Z,100.00
2023-01-04T16:50:07.198Z,100.00
2023-01-04T16:52:33.891Z,100.00
2023-01-04T16:55:00.553Z,100.00
2023-01-04T16:57:27.184Z,100.00
2023-01-04T16:59:53.795Z,100.00
2023-01-04T17:02:20.709Z,100.00
2023-01-04T17:04:54.084Z,100.00
2023-01-04T17:07:21.621Z,100.00
2023-01-04T17:09:49.613Z,100.00
2023-01-04T17:12:46.183Z,100.00
2023-01-04T17:17:49.523Z,100.00
2023-01-04T17:20:16.371Z,100.00
2023-01-04T17:22:43.047Z,100.00
2023-01-04T17:25:09.804Z,100.00
2023-01-04T17:27:36.808Z,100.00
2023-01-04T17:30:04.208Z,100.00
2023-01-04T17:32:30.837Z,100.00
2023-01-04T17:34:58.644Z,100.00
2023-01-04T17:37:25.729Z,100.00
2023-01-04T17:39:52.449Z,100.00
2023-01-04T17:42:19.211Z,100.00
2023-01-04T17:44:48.156Z,100.00
2023-01-04T17:47:15.218Z,100.00
2023-01-04T17:49:41.907Z,100.00
2023-01-04T17:52:09.139Z,100.00
2023-01-04T17:54:36.540Z,100.00
2023-01-04T17:57:03.321Z,100.00
2023-01-04T17:59:29.997Z,100.00
2023-01-04T18:01:56.771Z,100.00
2023-01-04T18:04:23.518Z,100.00
2023-01-04T18:06:50.165Z,100.00
2023-01-04T18:09:20.212Z,100.00
2023-01-04T18:11:51.149Z,100.00
2023-01-04T18:14:17.888Z,100.00
2023-01-04T18:16:57.602Z,100.00
2023-01-04T18:19:26.466Z,100.00
2023-01-04T18:21:53.353Z,100.00
2023-01-04T18:24:37.400Z,100.00
2023-01-04T18:27:23.657Z,100.00
2023-01-04T18:29:52.876Z,100.00
2023-01-04T18:32:20.787Z,100.00
2023-01-04T18:34:47.585Z,100.00
2023-01-04T18:37:16.160Z,100.00
2023-01-04T18:39:43.250Z,100.00
2023-01-04T18:42:09.982Z,100.00
2023-01-04T18:44:42.472Z,100.00
2023-01-04T18:47:12.685Z,100.00
2023-01-04T18:49:39.529Z,100.00
2023-01-04T18:52:06.482Z,100.00
2023-01-04T18:54:33.119Z,100.00
2023-01-04T18:57:01.191Z,100.00
2023-01-04T18:59:31.418Z,100.00
2023-01-04T19:02:02.743Z,100.00
2023-01-04T19:04:32.595Z,100.00
2023-01-04T19:07:00.333Z,100.00
2023-01-04T19:09:26.983Z,100.00
2023-01-04T19:11:53.665Z,100.00
2023-01-04T19:14:20.479Z,100.00
2023-01-04T19:16:47.311Z,100.00
2023-01-04T19:19:14.003Z,100.00
2023-01-04T19:21:40.685Z,100.00
2023-01-04T19:24:07.529Z,100.00
2023-01-04T19:26:34.395Z,100.00
2023-01-04T19:29:01.010Z,100.00
2023-01-04T19:31:28.013Z,100.00
2023-01-04T19:33:54.929Z,100.00
2023-01-04T19:36:21.943Z,100.00
2023-01-04T19:38:48.584Z,100.00
2023-01-04T19:41:20.906Z,100.00
2023-01-04T19:43:48.007Z,100.00
2023-01-04T19:46:15.190Z,100.00
2023-01-04T19:48:42.352Z,100.00
2023-01-04T19:51:15.780Z,100.00
2023-01-04T19:53:44.434Z,100.00
2023-01-04T19:56:12.761Z,100.00
2023-01-04T19:58:39.749Z,100.00
2023-01-04T20:01:07.192Z,100.00
2023-01-04T20:03:34.117Z,100.00
2023-01-04T20:06:04.892Z,100.00
2023-01-04T20:08:32.335Z,100.00
2023-01-04T20:11:01.063Z,100.00
2023-01-04T20:13:29.798Z,100.00
2023-01-04T20:15:56.475Z,100.00
2023-01-04T20:18:26.406Z,100.00
2023-01-04T20:20:53.497Z,100.00
2023-01-04T20:23:24.034Z,100.00
2023-01-04T20:25:53.706Z,100.00
2023-01-04T20:28:22.414Z,100.00
2023-01-04T20:30:49.442Z,100.00
2023-01-04T20:33:16.146Z,100.00
2023-01-04T20:35:44.529Z,100.00
2023-01-04T20:38:11.992Z,100.00
2023-01-04T20:40:39.445Z,100.00
2023-01-04T20:43:25.078Z,100.00
2023-01-04T20:45:51.899Z,100.00
2023-01-04T20:48:18.892Z,100.00
2023-01-04T20:50:45.651Z,100.00
2023-01-04T20:53:13.577Z,100.00
2023-01-04T20:55:41.906Z,100.00
2023-01-04T20:58:09.611Z,100.00
2023-01-04T21:00:37.157Z,100.00
2023-01-04T21:03:05.858Z,100.00
2023-01-04T21:05:41.353Z,100.00
2023-01-04T21:08:08.511Z,100.00
2023-01-04T21:10:36.126Z,100.00
2023-01-04T21:13:03.888Z,100.00
2023-01-04T21:15:30.874Z,100.00
2023-01-04T21:17:57.809Z,100.00
2023-01-04T21:20:24.818Z,100.00
2023-01-04T21:22:51.486Z,100.00
2023-01-04T21:25:18.464Z,100.00
2023-01-04T21:27:45.179Z,100.00
2023-01-04T21:30:12.740Z,100.00
2023-01-04T21:32:39.427Z,100.00
2023-01-04T21:35:06.639Z,100.00
2023-01-04T21:37:33.432Z,100.00
2023-01-04T21:40:00.132Z,100.00
2023-01-04T21:42:26.880Z,100.00
2023-01-04T21:44:53.571Z,100.00
2023-01-04T21:47:20.184Z,100.00
2023-01-04T21:49:46.928Z,100.00
2023-01-04T21:52:13.578Z,100.00
2023-01-04T21:54:40.266Z,100.00
2023-01-04T21:57:09.671Z,100.00
2023-01-04T21:59:36.510Z,100.00
2023-01-04T22:02:03.616Z,100.00
2023-01-04T22:04:31.258Z,100.00
2023-01-04T22:06:58.375Z,100.00
2023-01-04T22:09:25.609Z,100.00
2023-01-04T22:11:52.353Z,100.00
2023-01-04T22:14:19.207Z,100.00
2023-01-04T22:16:45.976Z,100.00
2023-01-04T22:19:14.347Z,100.00
2023-01-04T22:21:42.373Z,100.00
2023-01-04T22:24:13.971Z,100.00
2023-01-04T22:26:41.811Z,100.00
2023-01-04T22:29:09.709Z,100.00
2023-01-04T22:31:36.922Z,100.00
2023-01-04T22:34:04.064Z,100.00
2023-01-04T22:36:30.701Z,100.00
2023-01-04T22:38:58.415Z,100.00
2023-01-04T22:41:27.617Z,100.00
2023-01-04T22:43:59.683Z,100.00
2023-01-04T22:46:28.118Z,100.00
2023-01-04T22:48:55.549Z,100.00
2023-01-04T22:51:24.129Z,100.00
2023-01-04T22:53:55.349Z,100.00
2023-01-04T22:56:22.989Z,100.00
2023-01-04T22:58:55.792Z,100.00
2023-01-04T23:01:25.651Z,100.00
2023-01-04T23:03:53.048Z,100.00
2023-01-04T23:06:20.673Z,100.00
2023-01-04T23:08:48.620Z,100.00
2023-01-04T23:11:18.067Z,100.00
2023-01-04T23:13:45.039Z,100.00
2023-01-04T23:16:14.305Z,100.00
2023-01-04T23:18:41.043Z,100.00
2023-01-04T23:21:07.825Z,100.00
2023-01-04T23:23:34.877Z,100.00
2023-01-04T23:26:15.449Z,100.00
2023-01-04T23:28:42.978Z,100.00
2023-01-04T23:31:11.804Z,100.00
2023-01-04T23:33:38.769Z,100.00
2023-01-04T23:36:07.063Z,100.00
2023-01-04T23:38:33.798Z,100.00
2023-01-04T23:41:00.484Z,100.00
2023-01-04T23:43:27.189Z,100.00
2023-01-04T23:45:53.909Z,100.00
2023-01-04T23:48:20.546Z,100.00
2023-01-04T23:50:57.382Z,100.00
2023-01-04T23:53:24.672Z,100.00
2023-01-04T23:55:59.333Z,100.00
2023-01-04T23:58:29.084Z,100.00
